Time;durP1;ratioP1;P1;durP2;ratioP2;P2;SDS_P1;SDS_P2;PMS_P1;PMS_P2;Temp;Humidity;BMP_temperature;BMP_pressure;BME280_temperature;BME280_humidity;BME280_pressure;Samples;Min_cycle;Max_cycle;Signal;HPM_P1;HPM_P2
2022/02/14 00:00:11;;;;;;;7.85;4.32;;;9.40;66.60;;;;;;5011270;28;20067;-77
2022/02/14 00:02:38;;;;;;;6.75;3.90;;;9.40;66.70;;;;;;5009519;28;20026;-78
2022/02/14 00:05:04;;;;;;;6.68;3.70;;;9.40;66.90;;;;;;5012688;28;20022;-78
2022/02/14 00:07:31;;;;;;;6.95;3.85;;;9.40;67.00;;;;;;5007180;28;20025;-77
2022/02/14 00:09:57;;;;;;;7.30;3.90;;;9.40;66.90;;;;;;5003872;28;20022;-76
2022/02/14 00:12:22;;;;;;;7.90;3.83;;;9.40;67.00;;;;;;5011004;28;20597;-76
2022/02/14 00:14:48;;;;;;;6.78;3.88;;;9.40;67.00;;;;;;5006243;28;20061;-78
2022/02/14 00:17:14;;;;;;;6.20;3.85;;;9.40;67.00;;;;;;5008997;28;20036;-79
2022/02/14 00:19:39;;;;;;;8.93;4.68;;;9.40;67.30;;;;;;5009237;28;20648;-77
2022/02/14 00:22:05;;;;;;;7.72;3.92;;;9.40;67.50;;;;;;5015357;28;20029;-77
2022/02/14 00:24:30;;;;;;;6.72;3.40;;;9.40;67.40;;;;;;5008806;28;20029;-77
2022/02/14 00:26:56;;;;;;;5.97;3.40;;;9.40;67.40;;;;;;5012865;28;20026;-77
2022/02/14 00:29:22;;;;;;;5.32;3.35;;;9.50;67.40;;;;;;5009000;28;20026;-77
2022/02/14 00:31:47;;;;;;;9.80;5.40;;;9.50;67.50;;;;;;5012672;28;20059;-77
2022/02/14 00:34:14;;;;;;;10.27;5.32;;;9.50;67.40;;;;;;5014514;28;20022;-77
2022/02/14 00:36:39;;;;;;;8.93;3.70;;;9.50;67.40;;;;;;5012000;28;20100;-77
2022/02/14 00:39:05;;;;;;;7.40;3.70;;;9.60;68.20;;;;;;5013952;28;20045;-77
2022/02/14 00:41:31;;;;;;;5.60;3.28;;;9.60;67.50;;;;;;5010261;28;20475;-77
2022/02/14 00:43:56;;;;;;;6.03;3.92;;;9.60;67.50;;;;;;5013227;28;20026;-77
2022/02/14 00:46:22;;;;;;;6.68;3.25;;;9.60;67.50;;;;;;5009642;28;20041;-77
2022/02/14 00:48:47;;;;;;;6.28;3.17;;;9.60;67.50;;;;;;5008956;28;20018;-77
2022/02/14 00:51:13;;;;;;;6.50;3.28;;;9.60;67.70;;;;;;5012556;28;20384;-78
2022/02/14 00:53:39;;;;;;;6.32;3.38;;;9.60;67.80;;;;;;5008504;28;20054;-77
2022/02/14 00:56:04;;;;;;;6.20;3.00;;;9.60;67.70;;;;;;5011863;28;20108;-77
2022/02/14 00:58:30;;;;;;;6.32;3.45;;;9.70;67.70;;;;;;5009252;28;20025;-77
2022/02/14 01:00:55;;;;;;;6.60;3.30;;;9.70;67.70;;;;;;5010063;28;20586;-77
2022/02/14 01:03:21;;;;;;;5.22;2.85;;;9.70;67.80;;;;;;5011037;28;20564;-77
2022/02/14 01:05:46;;;;;;;4.65;2.75;;;9.70;67.80;;;;;;5012301;28;20480;-78
2022/02/14 01:08:12;;;;;;;5.43;2.70;;;9.70;67.90;;;;;;5011574;28;20761;-77
2022/02/14 01:10:37;;;;;;;5.15;2.92;;;9.70;67.90;;;;;;5007568;28;20049;-77
2022/02/14 01:13:04;;;;;;;6.28;3.20;;;9.70;67.90;;;;;;5013702;28;20464;-77
2022/02/14 01:15:29;;;;;;;6.05;3.22;;;9.70;67.80;;;;;;5016247;28;20087;-77
2022/02/14 01:17:56;;;;;;;4.88;2.90;;;9.70;68.00;;;;;;5020770;28;20014;-77
2022/02/14 01:20:21;;;;;;;5.57;2.85;;;9.80;68.10;;;;;;5016694;28;20400;-77
2022/02/14 01:22:47;;;;;;;4.68;2.95;;;9.80;68.10;;;;;;5015432;28;20036;-78
2022/02/14 01:25:13;;;;;;;6.18;3.15;;;9.80;68.20;;;;;;5022490;28;20031;-77
2022/02/14 01:27:39;;;;;;;5.40;3.10;;;9.80;68.30;;;;;;5017654;28;20010;-77
2022/02/14 01:30:06;;;;;;;5.85;2.90;;;9.70;68.50;;;;;;5022482;28;20041;-77
2022/02/14 01:32:32;;;;;;;6.55;3.15;;;9.80;68.50;;;;;;5020625;28;20481;-77
2022/02/14 01:34:58;;;;;;;6.43;3.10;;;9.80;68.40;;;;;;5023577;28;20025;-78
2022/02/14 01:37:23;;;;;;;8.30;3.58;;;9.80;68.50;;;;;;5019486;28;20034;-78
2022/02/14 01:39:49;;;;;;;5.43;3.17;;;9.80;68.50;;;;;;5010345;28;20037;-77
2022/02/14 01:42:16;;;;;;;5.45;3.03;;;9.90;68.60;;;;;;5022259;28;20384;-78
2022/02/14 01:44:46;;;;;;;6.18;3.35;;;9.90;68.70;;;;;;5014303;28;20613;-78
2022/02/14 01:47:18;;;;;;;4.47;2.63;;;9.90;68.60;;;;;;5008466;28;20136;-78
2022/02/14 01:49:45;;;;;;;5.85;2.80;;;9.90;68.60;;;;;;5024048;28;20038;-78
2022/02/14 01:52:11;;;;;;;4.47;2.50;;;9.90;68.60;;;;;;5021561;28;20022;-78
2022/02/14 01:54:40;;;;;;;7.05;3.30;;;9.90;68.60;;;;;;5026483;28;20488;-78
2022/02/14 01:57:07;;;;;;;5.72;2.70;;;9.90;68.60;;;;;;5021742;28;20026;-78
2022/02/14 01:59:33;;;;;;;5.90;2.75;;;10.00;68.60;;;;;;5024965;28;20744;-79
2022/02/14 02:02:04;;;;;;;5.07;2.30;;;10.00;68.60;;;;;;5009785;28;20121;-79
2022/02/14 02:04:29;;;;;;;5.40;2.42;;;10.00;68.50;;;;;;5010403;28;20018;-78
2022/02/14 02:06:55;;;;;;;3.95;2.50;;;10.00;68.50;;;;;;5010080;28;20056;-78
2022/02/14 02:09:22;;;;;;;5.35;2.65;;;10.00;68.60;;;;;;5016762;28;20393;-77
2022/02/14 02:14:32;;;;;;;5.82;2.38;;;10.10;68.60;;;;;;5016613;28;20115;-78
2022/02/14 02:16:59;;;;;;;4.78;2.35;;;10.10;68.60;;;;;;5019315;28;20275;-78
2022/02/14 02:19:24;;;;;;;5.50;2.70;;;10.10;68.60;;;;;;5016214;28;20149;-78
2022/02/14 02:21:50;;;;;;;5.30;2.60;;;10.10;68.80;;;;;;5019101;28;20571;-78
2022/02/14 02:24:19;;;;;;;8.20;2.60;;;10.10;68.70;;;;;;5009455;28;20049;-78
2022/02/14 02:27:05;;;;;;;5.88;2.53;;;10.10;68.80;;;;;;5014913;28;20022;-78
2022/02/14 02:29:35;;;;;;;5.70;2.67;;;10.10;68.90;;;;;;5016535;28;20028;-78
2022/02/14 02:32:01;;;;;;;4.00;2.30;;;10.10;68.90;;;;;;5019205;28;20029;-77
2022/02/14 02:34:27;;;;;;;7.55;2.70;;;10.10;68.90;;;;;;5015746;28;20029;-78
2022/02/14 02:36:55;;;;;;;5.57;2.72;;;10.10;68.90;;;;;;5014821;28;20026;-78
2022/02/14 02:39:21;;;;;;;7.75;2.80;;;10.20;68.90;;;;;;5015436;28;20034;-79
2022/02/14 02:41:47;;;;;;;5.90;2.95;;;10.20;68.70;;;;;;5021103;28;20419;-77
2022/02/14 02:44:13;;;;;;;6.40;3.15;;;10.20;68.70;;;;;;5017084;28;20032;-77
2022/02/14 02:46:39;;;;;;;6.20;2.90;;;10.20;68.70;;;;;;5020653;28;20112;-78
2022/02/14 02:49:20;;;;;;;9.15;3.15;;;10.20;68.70;;;;;;5012093;28;20044;-78
2022/02/14 02:51:51;;;;;;;7.20;2.58;;;10.20;68.60;;;;;;5019944;28;20032;-78
2022/02/14 02:54:18;;;;;;;6.97;3.13;;;10.20;68.60;;;;;;5018614;28;20093;-78
2022/02/14 02:56:47;;;;;;;6.38;2.97;;;10.20;68.60;;;;;;5020956;28;20037;-77
2022/02/14 02:59:12;;;;;;;4.90;2.67;;;10.30;68.50;;;;;;5010411;28;20046;-78
2022/02/14 03:01:39;;;;;;;4.97;2.92;;;10.30;68.40;;;;;;5010131;28;20065;-78
2022/02/14 03:04:06;;;;;;;4.80;2.50;;;10.30;68.40;;;;;;5009326;28;20033;-78
2022/02/14 03:06:34;;;;;;;4.82;2.40;;;10.30;68.30;;;;;;5017931;28;20029;-77
2022/02/14 03:08:59;;;;;;;4.95;2.60;;;10.30;68.30;;;;;;5017816;28;20529;-78
2022/02/14 03:11:25;;;;;;;6.60;2.67;;;10.30;68.40;;;;;;5018249;28;20113;-78
2022/02/14 03:13:51;;;;;;;6.60;2.50;;;10.30;68.50;;;;;;5018942;28;20499;-78
2022/02/14 03:16:18;;;;;;;5.25;2.70;;;10.30;68.60;;;;;;5019519;28;20655;-78
2022/02/14 03:18:44;;;;;;;5.88;2.80;;;10.30;68.60;;;;;;5010287;28;20409;-78
2022/02/14 03:21:11;;;;;;;6.57;2.72;;;10.30;68.60;;;;;;5013983;28;20034;-77
2022/02/14 03:23:36;;;;;;;5.05;2.40;;;10.30;68.50;;;;;;5010660;28;20018;-78
2022/02/14 03:26:03;;;;;;;8.52;2.40;;;10.30;68.40;;;;;;5015764;28;20143;-77
2022/02/14 03:28:29;;;;;;;6.05;2.35;;;10.40;68.40;;;;;;5007927;28;20018;-79
2022/02/14 03:30:54;;;;;;;5.18;2.35;;;10.40;68.30;;;;;;5021271;28;20536;-78
2022/02/14 03:33:20;;;;;;;4.18;2.47;;;10.40;68.20;;;;;;5018429;28;20142;-78
2022/02/14 03:35:46;;;;;;;7.40;2.75;;;10.50;68.10;;;;;;5020315;28;20026;-78
2022/02/14 03:38:12;;;;;;;6.30;2.90;;;10.50;68.00;;;;;;5017380;28;20488;-78
2022/02/14 03:40:38;;;;;;;5.38;2.30;;;10.50;67.90;;;;;;5012639;28;20041;-78
2022/02/14 03:43:06;;;;;;;5.95;2.20;;;10.50;67.90;;;;;;5020379;28;20672;-78
2022/02/14 03:45:33;;;;;;;5.70;2.30;;;10.50;67.80;;;;;;5015668;28;20029;-78
2022/02/14 03:47:58;;;;;;;5.50;2.10;;;10.60;67.80;;;;;;5022774;28;20034;-79
2022/02/14 03:50:24;;;;;;;5.03;2.40;;;10.60;67.70;;;;;;5021246;28;20041;-78
2022/02/14 03:52:50;;;;;;;4.85;2.40;;;10.60;67.70;;;;;;5021548;28;20025;-78
2022/02/14 03:55:16;;;;;;;5.60;2.67;;;10.60;67.50;;;;;;5014122;28;20061;-78
2022/02/14 03:57:45;;;;;;;5.32;2.25;;;10.60;67.50;;;;;;5024080;28;20046;-79
2022/02/14 04:00:12;;;;;;;4.55;2.13;;;10.70;67.50;;;;;;5010820;28;20021;-78
2022/02/14 04:02:39;;;;;;;4.18;2.03;;;10.70;67.40;;;;;;5012785;28;20041;-78
2022/02/14 04:05:05;;;;;;;5.07;2.22;;;10.70;67.40;;;;;;5010509;28;20025;-79
2022/02/14 04:07:31;;;;;;;5.47;2.50;;;10.70;67.30;;;;;;5020723;28;20384;-79
2022/02/14 04:09:57;;;;;;;4.75;2.22;;;10.80;67.30;;;;;;5020318;28;20022;-78
2022/02/14 04:12:23;;;;;;;4.15;2.00;;;10.80;67.30;;;;;;5020325;28;20488;-79
2022/02/14 04:14:48;;;;;;;3.28;2.15;;;10.80;67.10;;;;;;5021830;28;20018;-77
2022/02/14 04:17:14;;;;;;;5.00;2.35;;;10.90;67.10;;;;;;5020276;28;20045;-77
2022/02/14 04:19:39;;;;;;;5.78;2.30;;;10.90;66.90;;;;;;5018548;28;20030;-77
2022/02/14 04:22:05;;;;;;;3.95;1.83;;;11.00;66.80;;;;;;5019715;28;20030;-77
2022/02/14 04:24:30;;;;;;;5.13;2.10;;;11.00;66.70;;;;;;5024490;28;20114;-78
2022/02/14 04:26:56;;;;;;;3.58;1.90;;;11.00;66.60;;;;;;5002086;28;20027;-78
2022/02/14 04:29:21;;;;;;;5.47;2.00;;;11.00;66.50;;;;;;5023925;28;20057;-78
2022/02/14 04:31:47;;;;;;;5.53;2.33;;;11.10;66.50;;;;;;5021478;28;20045;-78
2022/02/14 04:34:14;;;;;;;4.40;2.45;;;11.10;66.30;;;;;;5020009;28;20080;-78
2022/02/14 04:36:39;;;;;;;4.22;2.42;;;11.10;66.30;;;;;;5024238;28;20025;-78
2022/02/14 04:39:05;;;;;;;5.68;1.98;;;11.10;66.20;;;;;;5015839;28;20541;-79
2022/02/14 04:41:30;;;;;;;4.38;2.10;;;11.20;66.20;;;;;;5023536;28;20047;-79
2022/02/14 04:43:56;;;;;;;5.75;2.35;;;11.20;66.00;;;;;;5007884;28;20077;-79
2022/02/14 04:46:21;;;;;;;5.18;1.95;;;11.20;65.90;;;;;;5017027;28;20037;-79
2022/02/14 04:48:47;;;;;;;4.38;1.90;;;11.20;65.80;;;;;;5023749;28;20044;-78
2022/02/14 04:51:13;;;;;;;5.18;2.45;;;11.30;65.90;;;;;;5017782;28;20090;-79
2022/02/14 04:53:38;;;;;;;4.85;2.40;;;11.30;65.80;;;;;;5019290;28;20032;-79
2022/02/14 04:56:04;;;;;;;9.00;2.85;;;11.30;65.80;;;;;;5019542;28;20070;-79
2022/02/14 04:58:30;;;;;;;3.85;2.20;;;11.30;65.60;;;;;;5021411;28;20060;-79
2022/02/14 05:00:56;;;;;;;5.15;2.53;;;11.30;65.50;;;;;;5013912;28;20031;-79
2022/02/14 05:03:21;;;;;;;3.38;1.90;;;11.30;65.50;;;;;;5017063;28;20066;-78
2022/02/14 05:05:47;;;;;;;4.00;2.28;;;11.30;65.40;;;;;;5021619;28;20106;-78
2022/02/14 05:08:12;;;;;;;5.53;2.15;;;11.30;65.30;;;;;;5019099;28;20499;-79
2022/02/14 05:10:38;;;;;;;4.45;2.10;;;11.30;65.40;;;;;;5015969;28;20432;-78
2022/02/14 05:13:04;;;;;;;4.10;1.77;;;11.30;65.40;;;;;;5019540;28;20057;-78
2022/02/14 05:15:29;;;;;;;8.00;2.50;;;11.40;65.40;;;;;;5017533;28;20121;-79
2022/02/14 05:17:55;;;;;;;4.25;2.20;;;11.30;65.10;;;;;;5018939;28;20029;-77
2022/02/14 05:20:20;;;;;;;5.25;2.00;;;11.30;65.10;;;;;;5024895;28;20048;-79
2022/02/14 05:22:46;;;;;;;5.15;1.80;;;11.30;65.00;;;;;;5018214;28;20021;-81
2022/02/14 05:25:11;;;;;;;4.28;1.83;;;11.30;65.20;;;;;;5019468;28;20034;-78
2022/02/14 05:27:37;;;;;;;4.75;2.08;;;11.40;65.20;;;;;;5021271;28;20045;-79
2022/02/14 05:30:04;;;;;;;3.10;1.88;;;11.40;65.00;;;;;;5023726;28;20476;-78
2022/02/14 05:32:30;;;;;;;3.30;1.80;;;11.40;65.00;;;;;;5021999;28;20120;-78
2022/02/14 05:34:56;;;;;;;3.90;1.95;;;11.40;65.00;;;;;;5013423;28;20113;-78
2022/02/14 05:37:22;;;;;;;3.67;1.92;;;11.40;65.00;;;;;;5018297;28;20017;-78
2022/02/14 05:39:48;;;;;;;4.82;2.08;;;11.40;65.00;;;;;;5022611;28;20068;-78
2022/02/14 05:42:13;;;;;;;6.28;2.15;;;11.40;65.00;;;;;;5020859;28;20026;-78
2022/02/14 05:44:39;;;;;;;3.35;1.77;;;11.40;65.10;;;;;;5019361;28;20021;-78
2022/02/14 05:47:05;;;;;;;4.47;1.98;;;11.50;65.20;;;;;;5019177;28;20463;-78
2022/02/14 05:49:31;;;;;;;5.28;2.20;;;11.40;65.00;;;;;;5023373;28;20068;-78
2022/02/14 05:51:57;;;;;;;3.65;2.03;;;11.50;65.10;;;;;;5018695;28;20022;-78
2022/02/14 05:54:23;;;;;;;2.72;1.70;;;11.40;65.10;;;;;;5014962;28;20150;-78
2022/02/14 05:56:48;;;;;;;3.35;1.70;;;11.40;65.20;;;;;;5018225;28;20167;-78
2022/02/14 05:59:14;;;;;;;5.80;1.90;;;11.40;65.20;;;;;;5014238;28;20453;-78
2022/02/14 06:01:39;;;;;;;3.10;1.90;;;11.50;65.30;;;;;;5015217;28;20053;-78
2022/02/14 06:04:05;;;;;;;3.80;2.10;;;11.50;65.30;;;;;;5012130;28;20030;-78
2022/02/14 06:06:31;;;;;;;2.65;1.60;;;11.50;65.30;;;;;;5019034;28;20026;-78
2022/02/14 06:08:57;;;;;;;4.75;2.00;;;11.50;65.40;;;;;;5020943;28;20029;-78
2022/02/14 06:11:22;;;;;;;3.58;1.88;;;11.50;65.50;;;;;;5016395;28;20022;-78
2022/02/14 06:13:48;;;;;;;5.03;2.03;;;11.50;65.60;;;;;;5012772;28;20080;-78
2022/02/14 06:16:14;;;;;;;3.17;1.90;;;11.50;65.70;;;;;;5030587;28;20515;-78
2022/02/14 06:18:40;;;;;;;3.88;1.95;;;11.50;65.70;;;;;;5025058;28;20029;-78
2022/02/14 06:21:05;;;;;;;3.85;1.95;;;11.50;65.80;;;;;;5021871;28;20056;-78
2022/02/14 06:23:31;;;;;;;2.67;1.95;;;11.50;65.90;;;;;;5018648;28;20033;-77
2022/02/14 06:25:57;;;;;;;3.92;2.10;;;11.50;65.90;;;;;;5022548;28;20104;-78
2022/02/14 06:28:22;;;;;;;4.63;1.88;;;11.50;66.00;;;;;;4989809;28;20041;-78
2022/02/14 06:30:48;;;;;;;4.28;1.90;;;11.50;66.20;;;;;;5019207;28;20034;-79
2022/02/14 06:33:14;;;;;;;3.63;2.10;;;11.50;66.10;;;;;;5016753;28;20037;-78
2022/02/14 06:35:40;;;;;;;3.85;2.10;;;11.50;66.00;;;;;;5022489;28;20029;-78
2022/02/14 06:38:06;;;;;;;2.47;1.80;;;11.50;66.10;;;;;;5022451;28;20760;-79
2022/02/14 06:40:32;;;;;;;4.60;1.77;;;11.50;66.20;;;;;;5017611;28;20041;-78
2022/02/14 06:42:57;;;;;;;3.65;1.80;;;11.50;66.20;;;;;;5018012;28;20038;-78
2022/02/14 06:45:23;;;;;;;4.80;2.28;;;11.60;66.30;;;;;;5025181;28;20026;-78
2022/02/14 06:47:48;;;;;;;3.30;1.77;;;11.50;66.20;;;;;;5016517;28;20111;-78
2022/02/14 06:50:17;;;;;;;2.88;1.85;;;11.50;66.30;;;;;;5018813;28;20025;-78
2022/02/14 06:52:43;;;;;;;3.97;1.95;;;11.60;66.30;;;;;;5006805;28;20028;-78
2022/02/14 06:55:08;;;;;;;3.83;2.03;;;11.50;66.30;;;;;;5015054;28;20472;-77
2022/02/14 06:57:34;;;;;;;2.97;1.60;;;11.50;66.40;;;;;;5017221;28;20044;-75
2022/02/14 07:00:00;;;;;;;6.30;2.10;;;11.60;66.50;;;;;;5005335;28;20026;-75
2022/02/14 07:02:26;;;;;;;3.47;2.20;;;11.50;66.50;;;;;;5002552;28;20088;-75
2022/02/14 07:04:52;;;;;;;4.70;2.10;;;11.60;66.70;;;;;;5003449;28;20135;-75
2022/02/14 07:07:19;;;;;;;5.07;1.92;;;11.50;66.80;;;;;;5003027;28;20372;-77
2022/02/14 07:09:46;;;;;;;5.53;2.28;;;11.50;66.90;;;;;;4999837;28;20022;-75
2022/02/14 07:12:11;;;;;;;3.97;1.80;;;11.60;67.20;;;;;;5011062;28;20068;-75
2022/02/14 07:14:37;;;;;;;2.53;1.63;;;11.50;67.20;;;;;;5008268;28;20416;-75
2022/02/14 07:17:03;;;;;;;5.43;2.10;;;11.50;67.30;;;;;;5026171;28;20022;-76
2022/02/14 07:19:28;;;;;;;5.55;2.00;;;11.60;67.40;;;;;;5016067;28;20037;-77
2022/02/14 07:21:55;;;;;;;4.18;1.80;;;11.60;67.40;;;;;;5021329;28;20091;-75
2022/02/14 07:24:20;;;;;;;3.83;2.20;;;11.60;67.50;;;;;;5011473;28;20030;-75
2022/02/14 07:26:46;;;;;;;2.90;2.15;;;11.60;67.70;;;;;;5019040;28;20485;-75
2022/02/14 07:29:11;;;;;;;4.10;2.05;;;11.60;67.90;;;;;;5019880;28;20060;-74
2022/02/14 07:31:37;;;;;;;4.28;1.83;;;11.60;68.00;;;;;;5025495;28;20025;-76
2022/02/14 07:34:03;;;;;;;2.83;1.80;;;11.70;68.10;;;;;;5023126;28;20080;-75
2022/02/14 07:36:28;;;;;;;3.55;1.75;;;11.70;68.10;;;;;;5031148;28;20021;-75
2022/02/14 07:38:54;;;;;;;4.13;2.10;;;11.70;68.20;;;;;;5029643;28;20026;-76
2022/02/14 07:41:20;;;;;;;4.70;2.22;;;11.70;68.40;;;;;;5023191;28;20400;-74
2022/02/14 07:43:45;;;;;;;2.10;1.60;;;11.70;68.70;;;;;;5023423;28;20029;-73
2022/02/14 07:46:11;;;;;;;5.07;2.00;;;11.70;69.10;;;;;;5017554;28;20431;-74
2022/02/14 07:48:38;;;;;;;2.95;1.95;;;11.70;69.30;;;;;;5031430;28;20499;-73
2022/02/14 07:51:04;;;;;;;3.60;1.70;;;11.70;69.50;;;;;;5010125;28;20026;-73
2022/02/14 07:53:30;;;;;;;3.17;1.70;;;11.70;69.80;;;;;;5026546;28;20028;-73
2022/02/14 07:55:55;;;;;;;3.25;1.70;;;11.80;69.80;;;;;;5002339;28;20034;-75
2022/02/14 07:58:21;;;;;;;2.58;1.73;;;11.80;70.00;;;;;;5013795;28;20102;-74
2022/02/14 08:00:46;;;;;;;4.53;2.10;;;11.70;70.20;;;;;;5014205;28;20037;-75
2022/02/14 08:03:12;;;;;;;3.70;1.88;;;11.70;70.30;;;;;;5013135;28;20602;-75
2022/02/14 08:05:37;;;;;;;5.20;2.10;;;11.70;70.50;;;;;;5005612;28;20029;-75
2022/02/14 08:08:03;;;;;;;2.45;1.70;;;11.70;70.60;;;;;;5011210;28;20076;-75
2022/02/14 08:10:30;;;;;;;4.28;2.00;;;11.70;70.60;;;;;;5007922;28;20033;-76
2022/02/14 08:12:55;;;;;;;4.18;1.90;;;11.80;70.60;;;;;;5010275;28;20076;-75
2022/02/14 08:15:21;;;;;;;3.13;2.00;;;11.70;70.50;;;;;;5010648;28;20033;-75
2022/02/14 08:17:48;;;;;;;3.03;1.70;;;11.70;70.60;;;;;;5009129;28;20022;-77
2022/02/14 08:20:13;;;;;;;1.90;1.30;;;11.80;70.60;;;;;;5010623;28;20045;-76
2022/02/14 08:22:39;;;;;;;1.13;0.90;;;11.70;71.80;;;;;;5005279;28;20113;-76
2022/02/14 08:25:05;;;;;;;1.08;0.98;;;11.50;72.40;;;;;;5014369;28;20037;-76
2022/02/14 08:27:30;;;;;;;1.80;1.00;;;11.30;73.80;;;;;;5007992;28;20032;-76
2022/02/14 08:29:57;;;;;;;1.80;0.90;;;11.10;74.70;;;;;;5010885;28;20022;-74
2022/02/14 08:32:23;;;;;;;0.73;0.73;;;11.00;75.00;;;;;;4999099;28;20026;-74
2022/02/14 08:34:49;;;;;;;0.70;0.70;;;10.90;75.60;;;;;;5008719;28;20033;-77
2022/02/14 08:37:14;;;;;;;0.85;0.80;;;10.80;76.00;;;;;;5012722;28;20025;-77
2022/02/14 08:39:40;;;;;;;0.80;0.75;;;10.70;76.50;;;;;;5014712;28;20032;-75
2022/02/14 08:42:07;;;;;;;1.02;0.90;;;10.60;76.70;;;;;;5015399;28;20029;-75
2022/02/14 08:44:33;;;;;;;0.80;0.80;;;10.50;77.10;;;;;;5011333;28;20055;-75
2022/02/14 08:47:01;;;;;;;0.80;0.80;;;10.50;77.50;;;;;;5012343;28;20040;-75
2022/02/14 08:49:28;;;;;;;1.10;0.80;;;10.40;77.60;;;;;;5014417;28;20025;-74
2022/02/14 08:51:55;;;;;;;0.80;0.80;;;10.40;78.00;;;;;;5009914;28;20448;-75
2022/02/14 08:54:21;;;;;;;0.80;0.80;;;10.40;78.10;;;;;;5008935;28;20092;-75
2022/02/14 08:56:46;;;;;;;0.95;0.93;;;10.40;78.20;;;;;;5005067;28;20376;-75
2022/02/14 08:59:19;;;;;;;1.30;1.00;;;10.40;78.70;;;;;;5006002;28;20022;-75
2022/02/14 09:01:45;;;;;;;1.95;0.93;;;10.30;79.10;;;;;;5010895;28;20046;-75
2022/02/14 09:04:10;;;;;;;0.80;0.80;;;10.30;79.20;;;;;;4997782;28;20021;-74
2022/02/14 09:06:36;;;;;;;1.05;0.80;;;10.30;79.40;;;;;;5000886;28;20067;-76
2022/02/14 09:09:02;;;;;;;1.02;0.80;;;10.30;79.40;;;;;;5011048;28;20018;-76
2022/02/14 09:11:27;;;;;;;1.88;0.90;;;10.40;79.30;;;;;;5011269;28;20476;-74
2022/02/14 09:13:53;;;;;;;1.40;0.70;;;10.40;79.20;;;;;;5012818;28;20048;-75
2022/02/14 09:16:18;;;;;;;0.80;0.80;;;10.40;79.10;;;;;;5012058;28;20389;-75
2022/02/14 09:18:44;;;;;;;1.23;0.80;;;10.40;79.00;;;;;;5009865;28;20079;-75
2022/02/14 09:21:09;;;;;;;0.93;0.68;;;10.50;79.00;;;;;;5010431;28;20403;-76
2022/02/14 09:23:35;;;;;;;1.10;1.00;;;10.40;79.10;;;;;;5009851;28;20033;-76
2022/02/14 09:26:01;;;;;;;1.60;0.80;;;10.30;79.20;;;;;;5006602;28;20641;-75
2022/02/14 09:28:26;;;;;;;0.80;0.80;;;10.40;79.20;;;;;;5007243;28;20046;-74
2022/02/14 09:30:52;;;;;;;1.20;1.10;;;10.40;79.10;;;;;;5011400;28;20018;-74
2022/02/14 09:33:18;;;;;;;0.65;0.65;;;10.40;79.10;;;;;;5007398;28;20428;-75
2022/02/14 09:35:43;;;;;;;0.95;0.77;;;10.40;78.90;;;;;;5012846;28;20036;-75
2022/02/14 09:38:10;;;;;;;0.90;0.90;;;10.50;78.80;;;;;;5010250;28;20480;-77
2022/02/14 09:40:36;;;;;;;0.75;0.75;;;10.50;78.80;;;;;;5011114;28;20049;-75
2022/02/14 09:43:03;;;;;;;0.95;0.90;;;10.50;78.70;;;;;;5006882;28;20108;-76
2022/02/14 09:45:30;;;;;;;0.63;0.60;;;10.50;78.60;;;;;;5009045;28;20038;-77
2022/02/14 09:48:04;;;;;;;0.82;0.80;;;10.50;78.50;;;;;;5008666;28;20022;-75
2022/02/14 09:50:33;;;;;;;0.95;0.90;;;10.50;78.50;;;;;;5007680;28;20109;-76
2022/02/14 09:53:00;;;;;;;1.10;1.00;;;10.60;78.60;;;;;;5009512;28;20092;-76
2022/02/14 09:55:26;;;;;;;1.30;1.20;;;10.60;78.50;;;;;;5006848;28;20044;-75
2022/02/14 09:57:51;;;;;;;1.20;1.10;;;10.70;78.40;;;;;;5008738;28;20017;-74
2022/02/14 10:00:17;;;;;;;2.92;1.77;;;10.70;78.20;;;;;;5007374;28;20112;-77
2022/02/14 10:02:43;;;;;;;1.83;1.73;;;10.80;78.20;;;;;;5006377;28;20505;-75
2022/02/14 10:05:15;;;;;;;2.63;2.10;;;10.90;78.10;;;;;;5008793;28;20034;-77
2022/02/14 10:07:54;;;;;;;4.45;2.47;;;10.90;78.00;;;;;;5011203;28;20663;-75
2022/02/14 10:10:25;;;;;;;2.97;2.35;;;11.00;77.90;;;;;;5003687;28;20381;-75
2022/02/14 10:12:55;;;;;;;4.55;2.60;;;11.10;77.90;;;;;;5000463;28;20036;-75
2022/02/14 10:15:22;;;;;;;3.25;2.90;;;11.20;77.70;;;;;;5009460;28;20037;-76
2022/02/14 10:17:51;;;;;;;3.70;3.38;;;11.20;77.50;;;;;;5004388;28;20543;-76
2022/02/14 10:20:21;;;;;;;3.10;2.80;;;11.20;77.50;;;;;;5004678;28;20046;-75
2022/02/14 10:22:55;;;;;;;2.85;2.65;;;11.30;77.40;;;;;;5006577;28;20053;-75
2022/02/14 10:25:41;;;;;;;3.05;2.80;;;11.30;77.20;;;;;;5010609;28;20037;-75
2022/02/14 10:28:29;;;;;;;3.22;2.90;;;11.30;77.10;;;;;;5004378;28;20121;-75
2022/02/14 10:31:02;;;;;;;4.47;3.90;;;11.40;77.20;;;;;;5004072;28;20065;-75
2022/02/14 10:33:48;;;;;;;5.35;4.00;;;11.30;76.90;;;;;;5005732;28;20049;-77
2022/02/14 10:36:36;;;;;;;4.05;3.45;;;11.30;76.90;;;;;;5009434;28;20038;-75
2022/02/14 10:39:28;;;;;;;3.70;3.30;;;11.30;76.90;;;;;;5008090;28;20472;-74
2022/02/14 10:41:58;;;;;;;3.20;2.90;;;11.40;76.90;;;;;;5004841;28;20052;-75
2022/02/14 10:47:21;;;;;;;3.72;3.20;;;11.60;76.50;;;;;;5003078;28;20072;-74
2022/02/14 10:50:17;;;;;;;4.88;3.55;;;11.60;76.20;;;;;;5005471;28;20388;-75
2022/02/14 10:52:44;;;;;;;4.78;3.55;;;11.60;75.80;;;;;;4998906;28;20030;-75
2022/02/14 10:55:13;;;;;;;4.55;3.38;;;11.60;75.50;;;;;;5005642;28;20057;-74
2022/02/14 10:57:40;;;;;;;4.15;3.58;;;11.60;75.40;;;;;;5004513;28;20053;-75
2022/02/14 11:00:10;;;;;;;3.63;3.20;;;11.70;75.30;;;;;;5009130;28;20505;-75
2022/02/14 11:02:42;;;;;;;4.32;2.92;;;11.70;75.20;;;;;;5003291;28;20546;-75
2022/02/14 11:05:07;;;;;;;3.92;3.20;;;11.70;74.90;;;;;;5004295;28;20028;-75
2022/02/14 11:07:35;;;;;;;3.85;3.45;;;11.80;74.70;;;;;;5002716;28;20607;-75
2022/02/14 11:10:04;;;;;;;3.60;2.70;;;11.80;74.40;;;;;;5005087;28;20057;-74
2022/02/14 11:12:34;;;;;;;3.15;2.85;;;11.70;74.20;;;;;;5006578;28;20044;-75
2022/02/14 11:15:02;;;;;;;3.45;2.63;;;11.70;74.10;;;;;;5006774;28;20018;-76
2022/02/14 11:17:29;;;;;;;4.95;3.38;;;11.60;74.00;;;;;;5002650;28;20435;-75
2022/02/14 11:19:57;;;;;;;2.80;2.35;;;11.50;73.80;;;;;;5006437;28;20030;-75
2022/02/14 11:22:27;;;;;;;4.47;2.90;;;11.50;73.90;;;;;;5008730;28;20049;-75
2022/02/14 11:24:59;;;;;;;4.55;2.88;;;11.40;73.90;;;;;;5007648;28;20105;-75
2022/02/14 11:27:28;;;;;;;5.13;3.10;;;11.30;73.80;;;;;;5006125;28;20121;-75
2022/02/14 11:30:00;;;;;;;3.20;2.90;;;11.30;73.70;;;;;;5008310;28;20022;-75
2022/02/14 11:32:27;;;;;;;3.43;2.53;;;11.20;73.80;;;;;;5007252;28;20522;-75
2022/02/14 11:34:57;;;;;;;4.13;2.90;;;11.30;74.00;;;;;;5003387;28;20396;-75
2022/02/14 11:37:24;;;;;;;4.35;2.65;;;11.20;73.90;;;;;;5003899;28;20392;-75
2022/02/14 11:39:50;;;;;;;2.95;2.30;;;11.30;74.00;;;;;;5003158;28;20041;-78
2022/02/14 11:42:15;;;;;;;3.72;2.70;;;11.30;74.00;;;;;;5006707;28;20116;-76
2022/02/14 11:44:42;;;;;;;2.38;2.17;;;11.40;74.00;;;;;;5009758;28;20114;-78
2022/02/14 11:47:14;;;;;;;5.05;2.63;;;11.50;73.70;;;;;;5003005;28;20030;-76
2022/02/14 11:49:45;;;;;;;2.30;2.10;;;11.50;73.20;;;;;;5005102;28;20405;-78
2022/02/14 11:52:26;;;;;;;3.55;2.10;;;11.60;73.00;;;;;;5002609;28;20048;-79
2022/02/14 11:54:52;;;;;;;4.30;2.40;;;11.50;72.40;;;;;;5003808;28;20029;-76
2022/02/14 11:57:33;;;;;;;4.15;2.15;;;11.60;72.20;;;;;;5010033;28;20033;-75
2022/02/14 12:00:27;;;;;;;2.78;2.03;;;11.70;72.10;;;;;;5006314;28;20021;-76
2022/02/14 12:03:09;;;;;;;3.35;2.13;;;11.80;71.90;;;;;;5006065;28;20029;-76
2022/02/14 12:05:58;;;;;;;3.53;2.10;;;11.80;71.40;;;;;;5006435;28;20467;-75
2022/02/14 12:08:24;;;;;;;3.75;2.20;;;11.90;70.80;;;;;;5010152;28;20026;-76
2022/02/14 12:10:55;;;;;;;4.05;2.40;;;12.40;70.30;;;;;;5013149;28;20037;-73
2022/02/14 12:13:25;;;;;;;3.75;2.20;;;13.70;67.20;;;;;;5009573;28;20033;-73
2022/02/14 12:21:11;;;;;;;2.63;1.60;;;15.70;58.80;;;;;;5013474;28;20124;-75
2022/02/14 12:23:41;;;;;;;3.08;1.40;;;16.00;57.50;;;;;;5007959;28;20040;-76
2022/02/14 12:26:11;;;;;;;1.67;1.40;;;16.30;56.60;;;;;;5019716;28;20065;-76
2022/02/14 12:28:39;;;;;;;2.75;1.30;;;15.50;56.80;;;;;;5005456;28;20080;-75
2022/02/14 12:31:05;;;;;;;2.38;1.40;;;14.40;57.90;;;;;;5010981;28;20092;-75
2022/02/14 12:33:32;;;;;;;4.43;1.50;;;13.70;59.00;;;;;;5009109;28;20092;-73
2022/02/14 12:36:00;;;;;;;3.35;1.33;;;13.40;60.10;;;;;;5011400;28;20022;-75
2022/02/14 12:38:28;;;;;;;4.00;1.50;;;13.20;61.00;;;;;;5009136;28;20388;-75
2022/02/14 12:41:03;;;;;;;2.22;1.40;;;13.10;61.50;;;;;;5011817;28;20030;-75
2022/02/14 12:43:39;;;;;;;2.90;1.40;;;13.10;61.60;;;;;;5007100;28;20026;-75
2022/02/14 12:46:19;;;;;;;3.35;1.20;;;13.00;62.10;;;;;;5005846;28;20037;-74
2022/02/14 12:48:47;;;;;;;2.05;1.20;;;12.80;61.50;;;;;;5023937;28;20049;-76
2022/02/14 12:51:12;;;;;;;3.17;1.10;;;12.70;61.60;;;;;;5005529;28;20030;-77
2022/02/14 12:53:43;;;;;;;1.92;1.10;;;12.80;61.30;;;;;;5007520;28;20084;-77
2022/02/14 12:56:20;;;;;;;3.20;1.08;;;12.90;61.30;;;;;;5003880;28;20034;-76
2022/02/14 12:58:51;;;;;;;2.35;1.20;;;13.10;60.70;;;;;;5009863;28;20025;-77